Urk, Netherlands
Current Conditions -  °F | °C
As of 10:55 AM on Friday 24 Oct 2014 (Local Time) from EHKD Reporting Station
Light Rain Light Rain  
Wind Chill: 52°   Ceiling: 600
Heat Index: 52°   Visibility: 3mi
Dew Point: 52°   Wind: 17mph
Humidity: 100%   Direction: 180°S
Pressure: 30"   Gusts: NA
Location:  52.66°N, 5.6°E
Report Text: EHKD 240855Z AUTO 18015KT 4900 -RA FEW004 BKN006 OVC007 11/11 Q1016 RE// YLO 19016KT 8000 BR BKN009 BKN012 TEMPO 3000 DZRA BKN005 BKN008
Loading
Personal Weather Stations






























Interactive Weather Map
Tropical Storm Tracking
New forecast layout! Learn more

10-Day Weather Forecast

Advertisements
Track Severe Weather on mobile